Aurora, Colorado
Current Conditions -  °F | °C
As of 7:58 AM on Saturday 20 Dec 2014 (Local Time) from KBKF Reporting Station
Broken Clouds Broken Clouds  
Wind Chill: 27°   Ceiling: 14000
Heat Index: 35°   Visibility: 10mi
Dew Point: 18°   Wind: 10mph
Humidity: 49%   Direction: 180°S
Pressure: 29.99"   Gusts: NA
Location:  39.69°N, 104.86°W
Report Text: KBKF 201458Z 18009KT 10SM FEW070 BKN140 BKN220 02/M08 A2999 RMK AO2A SLP161 T00171079 50001
Loading
Personal Weather Stations






























Interactive Weather Map New forecast layout! Learn more

10-Day Weather Forecast

Advertisements
Track Severe Weather on mobile